createdAt,value
2024-02-17T00:00:36.365Z,0
2024-02-17T00:01:42.470Z,0
2024-02-17T00:02:48.574Z,0
2024-02-17T00:03:54.678Z,0
2024-02-17T00:05:00.781Z,0
2024-02-17T00:06:07.122Z,0
2024-02-17T00:07:12.243Z,0
2024-02-17T00:08:18.347Z,0
2024-02-17T00:09:24.452Z,0
2024-02-17T00:10:30.556Z,0
2024-02-17T00:11:36.661Z,0
2024-02-17T00:12:42.766Z,0
2024-02-17T00:13:48.871Z,0
2024-02-17T00:14:54.975Z,0
2024-02-17T00:16:01.080Z,0
2024-02-17T00:17:07.186Z,0
2024-02-17T00:18:13.289Z,0
2024-02-17T00:19:19.393Z,0
2024-02-17T00:20:25.497Z,0
2024-02-17T00:21:31.838Z,0
2024-02-17T00:22:36.958Z,0
2024-02-17T00:23:43.063Z,0
2024-02-17T00:24:49.168Z,0
2024-02-17T00:25:55.272Z,0
2024-02-17T00:27:01.377Z,0
2024-02-17T00:28:07.481Z,0
2024-02-17T00:29:13.586Z,0
2024-02-17T00:30:19.691Z,0
2024-02-17T00:31:25.796Z,0
2024-02-17T00:32:31.901Z,0
2024-02-17T00:33:38.004Z,0
2024-02-17T00:34:44.108Z,0
2024-02-17T00:35:50.211Z,0
2024-02-17T00:36:56.553Z,0
2024-02-17T00:38:01.679Z,0
2024-02-17T00:39:07.784Z,0
2024-02-17T00:40:13.889Z,0
2024-02-17T00:41:19.994Z,0
2024-02-17T00:42:26.099Z,0
2024-02-17T00:43:32.203Z,0
2024-02-17T00:44:38.308Z,0
2024-02-17T00:45:44.412Z,0
2024-02-17T00:46:50.517Z,0
2024-02-17T00:47:56.622Z,0
2024-02-17T00:49:02.726Z,0
2024-02-17T00:50:08.829Z,0
2024-02-17T00:51:14.933Z,0
2024-02-17T00:52:21.267Z,0
2024-02-17T00:53:26.388Z,0
2024-02-17T00:54:32.493Z,0
2024-02-17T00:55:38.597Z,0
2024-02-17T00:56:44.702Z,0
2024-02-17T00:57:50.806Z,0
2024-02-17T00:58:56.912Z,0
2024-02-17T01:00:03.016Z,0
2024-02-17T01:01:09.120Z,0
2024-02-17T01:02:15.225Z,0
2024-02-17T01:03:21.330Z,0
2024-02-17T01:04:27.425Z,0
2024-02-17T01:05:33.537Z,0
2024-02-17T01:06:39.640Z,0
2024-02-17T01:07:45.982Z,0
2024-02-17T01:08:52.183Z,0
2024-02-17T01:09:58.313Z,0
2024-02-17T01:11:04.417Z,0
2024-02-17T01:12:10.522Z,0
2024-02-17T01:13:16.626Z,0
2024-02-17T01:14:22.731Z,0
2024-02-17T01:15:28.835Z,0
2024-02-17T01:16:34.940Z,0
2024-02-17T01:17:41.045Z,0
2024-02-17T01:18:47.149Z,0
2024-02-17T01:19:53.254Z,0
2024-02-17T01:20:59.359Z,0
2024-02-17T01:22:05.463Z,0
2024-02-17T01:23:11.566Z,0
2024-02-17T01:24:17.670Z,0
2024-02-17T01:25:24.001Z,0
2024-02-17T01:26:29.122Z,0
2024-02-17T01:27:35.227Z,0
2024-02-17T01:28:41.331Z,0
2024-02-17T01:29:47.437Z,0
2024-02-17T01:30:53.541Z,0
2024-02-17T01:31:59.646Z,0
2024-02-17T01:33:05.750Z,0
2024-02-17T01:34:11.855Z,0
2024-02-17T01:35:17.959Z,0
2024-02-17T01:36:24.064Z,0
2024-02-17T01:37:30.168Z,0
2024-02-17T01:38:36.271Z,0
2024-02-17T01:39:42.375Z,0
2024-02-17T01:40:48.716Z,0
2024-02-17T01:41:53.837Z,0
2024-02-17T01:42:59.942Z,0
2024-02-17T01:44:06.046Z,0
2024-02-17T01:45:12.151Z,0
2024-02-17T01:46:18.256Z,0
2024-02-17T01:47:24.360Z,0
2024-02-17T01:48:30.465Z,0
2024-02-17T01:49:36.570Z,0
2024-02-17T01:50:42.674Z,0
2024-02-17T01:51:48.779Z,0
2024-02-17T01:52:54.882Z,0
2024-02-17T01:54:00.986Z,0
2024-02-17T01:55:07.090Z,0
2024-02-17T01:56:13.434Z,0
2024-02-17T01:57:18.555Z,0
2024-02-17T01:58:24.659Z,0
2024-02-17T01:59:30.764Z,0
2024-02-17T02:00:36.868Z,0
2024-02-17T02:01:42.973Z,0
2024-02-17T02:02:49.077Z,0
2024-02-17T02:03:55.182Z,0
2024-02-17T02:05:01.287Z,0
2024-02-17T02:06:07.392Z,0
2024-02-17T02:07:13.496Z,0
2024-02-17T02:08:19.600Z,0
2024-02-17T02:09:25.703Z,0
2024-02-17T02:10:31.807Z,0
2024-02-17T02:11:38.149Z,0
2024-02-17T02:12:43.269Z,0
2024-02-17T02:13:49.374Z,0
2024-02-17T02:14:55.479Z,0
2024-02-17T02:16:01.583Z,0
2024-02-17T02:17:07.688Z,0
2024-02-17T02:18:13.793Z,0
2024-02-17T02:19:19.898Z,0
2024-02-17T02:20:26.002Z,0
2024-02-17T02:21:32.107Z,0
2024-02-17T02:22:38.212Z,0
2024-02-17T02:23:44.316Z,0
2024-02-17T02:24:50.420Z,0
2024-02-17T02:25:56.523Z,0
2024-02-17T02:27:02.864Z,0
2024-02-17T02:28:07.984Z,0
2024-02-17T02:29:14.089Z,0
2024-02-17T02:30:20.195Z,0
2024-02-17T02:31:26.299Z,0
2024-02-17T02:32:32.404Z,0
2024-02-17T02:33:38.509Z,0
2024-02-17T02:34:44.613Z,0
2024-02-17T02:35:50.718Z,0
2024-02-17T02:36:56.823Z,0
2024-02-17T02:38:02.927Z,0
2024-02-17T02:39:09.031Z,0
2024-02-17T02:40:15.134Z,0
2024-02-17T02:41:21.238Z,0
2024-02-17T02:42:27.581Z,0
2024-02-17T02:43:32.702Z,0
2024-02-17T02:44:38.806Z,0
2024-02-17T02:45:44.911Z,0
2024-02-17T02:46:51.016Z,0
2024-02-17T02:47:57.121Z,0
2024-02-17T02:49:03.225Z,0
2024-02-17T02:50:09.330Z,0
2024-02-17T02:51:15.434Z,0
2024-02-17T02:52:21.539Z,0
2024-02-17T02:53:27.644Z,0
2024-02-17T02:54:33.747Z,0
2024-02-17T02:55:39.851Z,0
2024-02-17T02:56:45.954Z,0
2024-02-17T02:57:52.298Z,0
2024-02-17T02:58:57.418Z,0
2024-02-17T03:00:03.523Z,0
2024-02-17T03:01:09.628Z,0
2024-02-17T03:02:15.732Z,0
2024-02-17T03:03:21.814Z,0
2024-02-17T03:04:27.942Z,0
2024-02-17T03:05:34.046Z,0
2024-02-17T03:06:40.151Z,0
2024-02-17T03:07:46.231Z,0
2024-02-17T03:08:52.361Z,0
2024-02-17T03:09:58.464Z,0
2024-02-17T03:11:04.568Z,0
2024-02-17T03:12:10.672Z,0
2024-02-17T03:13:17.015Z,0
2024-02-17T03:14:22.136Z,0
2024-02-17T03:15:28.240Z,0
2024-02-17T03:16:34.345Z,0
2024-02-17T03:17:40.450Z,0
2024-02-17T03:18:46.554Z,0
2024-02-17T03:19:52.659Z,0
2024-02-17T03:20:58.764Z,0
2024-02-17T03:22:04.868Z,0
2024-02-17T03:23:10.973Z,0
2024-02-17T03:24:17.077Z,0
2024-02-17T03:25:23.181Z,0
2024-02-17T03:26:29.285Z,0
2024-02-17T03:27:35.388Z,0
2024-02-17T03:28:41.733Z,0
2024-02-17T03:29:46.853Z,0
2024-02-17T03:30:52.958Z,0
2024-02-17T03:31:59.063Z,0
2024-02-17T03:33:05.167Z,0
2024-02-17T03:34:11.272Z,0
2024-02-17T03:35:17.377Z,0
2024-02-17T03:36:23.481Z,0
2024-02-17T03:37:29.586Z,0
2024-02-17T03:38:35.691Z,0
2024-02-17T03:39:41.796Z,0
2024-02-17T03:40:47.899Z,0
2024-02-17T03:41:54.003Z,0
2024-02-17T03:43:00.106Z,0
2024-02-17T03:44:06.448Z,0
2024-02-17T03:45:11.568Z,0
2024-02-17T03:46:17.673Z,0
2024-02-17T03:47:23.778Z,0
2024-02-17T03:48:29.882Z,0
2024-02-17T03:49:35.987Z,0
2024-02-17T03:50:42.092Z,0
2024-02-17T03:51:48.197Z,0
2024-02-17T03:52:54.286Z,0
2024-02-17T03:54:00.406Z,0
2024-02-17T03:55:06.511Z,0
2024-02-17T03:56:12.615Z,0
2024-02-17T03:57:18.692Z,0
2024-02-17T03:58:24.822Z,0
2024-02-17T03:59:31.164Z,0
2024-02-17T04:00:36.284Z,0
2024-02-17T04:01:42.389Z,0
2024-02-17T04:02:48.494Z,0
2024-02-17T04:03:54.599Z,0
2024-02-17T04:05:00.703Z,0
2024-02-17T04:06:06.808Z,0
2024-02-17T04:07:12.913Z,0
2024-02-17T04:08:19.018Z,0
2024-02-17T04:09:25.122Z,0
2024-02-17T04:10:31.228Z,0
2024-02-17T04:11:37.331Z,0
2024-02-17T04:12:43.435Z,0
2024-02-17T04:13:49.539Z,0
2024-02-17T04:14:55.880Z,0
2024-02-17T04:16:01.001Z,0
2024-02-17T04:17:07.106Z,0
2024-02-17T04:18:13.211Z,0
2024-02-17T04:19:18.337Z,0
2024-02-17T04:20:24.441Z,0
2024-02-17T04:21:30.546Z,0
2024-02-17T04:22:36.650Z,0
2024-02-17T04:23:42.754Z,0
2024-02-17T04:24:48.857Z,0
2024-02-17T04:25:55.190Z,0
2024-02-17T04:27:01.294Z,0
2024-02-17T04:28:07.400Z,0
2024-02-17T04:29:13.504Z,0
2024-02-17T04:30:19.609Z,0
2024-02-17T04:31:25.714Z,0
2024-02-17T04:32:31.819Z,0
2024-02-17T04:33:36.940Z,0
2024-02-17T04:34:43.044Z,0
2024-02-17T04:35:49.149Z,0
2024-02-17T04:36:55.254Z,0
2024-02-17T04:38:01.358Z,0
2024-02-17T04:39:07.462Z,0
2024-02-17T04:40:13.566Z,0
2024-02-17T04:41:19.906Z,0
2024-02-17T04:42:26.011Z,0
2024-02-17T04:43:32.117Z,0
2024-02-17T04:44:38.222Z,0
2024-02-17T04:45:44.327Z,0
2024-02-17T04:46:50.408Z,0
2024-02-17T04:47:55.553Z,0
2024-02-17T04:49:01.658Z,0
2024-02-17T04:50:07.763Z,0
2024-02-17T04:51:13.867Z,0
2024-02-17T04:52:19.972Z,0
2024-02-17T04:53:26.076Z,0
2024-02-17T04:54:32.180Z,0
2024-02-17T04:55:38.284Z,0
2024-02-17T04:56:44.625Z,0
2024-02-17T04:57:50.730Z,0
2024-02-17T04:58:56.835Z,0
2024-02-17T05:00:02.939Z,0
2024-02-17T05:01:09.044Z,0
2024-02-17T05:02:14.165Z,0
2024-02-17T05:03:20.270Z,0
2024-02-17T05:04:26.375Z,0
2024-02-17T05:05:32.480Z,0
2024-02-17T05:06:38.585Z,0
2024-02-17T05:07:44.689Z,0
2024-02-17T05:08:50.793Z,0
2024-02-17T05:09:56.897Z,0
2024-02-17T05:11:03.001Z,0
2024-02-17T05:12:09.343Z,0
2024-02-17T05:13:15.448Z,0
2024-02-17T05:14:21.553Z,0
2024-02-17T05:15:27.658Z,0
2024-02-17T05:16:32.779Z,0
2024-02-17T05:17:38.884Z,0
2024-02-17T05:18:44.989Z,0
2024-02-17T05:19:51.094Z,0
2024-02-17T05:20:57.199Z,0
2024-02-17T05:22:03.304Z,0
2024-02-17T05:23:09.408Z,0
2024-02-17T05:24:15.512Z,0
2024-02-17T05:25:21.616Z,0
2024-02-17T05:26:27.720Z,0
2024-02-17T05:27:34.063Z,0
2024-02-17T05:28:40.168Z,0
2024-02-17T05:29:46.273Z,0
2024-02-17T05:30:51.394Z,0
2024-02-17T05:31:57.470Z,0
2024-02-17T05:33:03.603Z,0
2024-02-17T05:34:09.708Z,0
2024-02-17T05:35:15.813Z,0
2024-02-17T05:36:21.899Z,0
2024-02-17T05:37:28.023Z,0
2024-02-17T05:38:34.128Z,0
2024-02-17T05:39:40.232Z,0
2024-02-17T05:40:46.336Z,0
2024-02-17T05:41:52.440Z,0
2024-02-17T05:42:58.781Z,0
2024-02-17T05:44:04.887Z,0
2024-02-17T05:45:10.008Z,0
2024-02-17T05:46:16.113Z,0
2024-02-17T05:47:22.217Z,0
2024-02-17T05:48:28.322Z,0
2024-02-17T05:49:34.426Z,0
2024-02-17T05:50:40.530Z,0
2024-02-17T05:51:46.892Z,0
2024-02-17T05:52:52.997Z,0
2024-02-17T05:53:59.227Z,0
2024-02-17T05:55:05.401Z,0
2024-02-17T05:56:11.506Z,0
2024-02-17T05:57:17.671Z,0
2024-02-17T05:58:23.883Z,0
2024-02-17T05:59:29.004Z,0
2024-02-17T06:00:35.109Z,0
2024-02-17T06:01:41.214Z,0
2024-02-17T06:02:47.319Z,0
2024-02-17T06:03:53.424Z,0
2024-02-17T06:04:59.529Z,0
2024-02-17T06:06:05.634Z,0
2024-02-17T06:07:11.766Z,0
2024-02-17T06:08:17.920Z,0
2024-02-17T06:09:24.025Z,0
2024-02-17T06:10:30.190Z,0
2024-02-17T06:11:36.344Z,0
2024-02-17T06:12:42.449Z,0
2024-02-17T06:13:47.570Z,0
2024-02-17T06:14:53.675Z,0
2024-02-17T06:15:59.780Z,0
2024-02-17T06:17:05.893Z,0
2024-02-17T06:18:12.046Z,0
2024-02-17T06:19:18.151Z,0
2024-02-17T06:20:24.317Z,0
2024-02-17T06:21:30.471Z,0
2024-02-17T06:22:36.577Z,0
2024-02-17T06:23:42.743Z,0
2024-02-17T06:24:48.897Z,0
2024-02-17T06:25:55.002Z,0
2024-02-17T06:27:01.168Z,5
2024-02-17T06:28:06.289Z,5
2024-02-17T06:29:12.394Z,5
2024-02-17T06:30:18.499Z,5
2024-02-17T06:31:24.604Z,5
2024-02-17T06:32:30.710Z,5
2024-02-17T06:33:36.871Z,5
2024-02-17T06:34:43.025Z,5
2024-02-17T06:35:49.130Z,11
2024-02-17T06:36:55.297Z,11
2024-02-17T06:38:01.451Z,11
2024-02-17T06:39:07.556Z,11
2024-02-17T06:40:13.722Z,11
2024-02-17T06:41:19.847Z,11
2024-02-17T06:42:24.997Z,11
2024-02-17T06:43:31.103Z,16
2024-02-17T06:44:37.208Z,16
2024-02-17T06:45:43.313Z,16
2024-02-17T06:46:49.426Z,16
2024-02-17T06:47:55.580Z,16
2024-02-17T06:49:01.684Z,16
2024-02-17T06:50:07.851Z,16
2024-02-17T06:51:14.005Z,22
2024-02-17T06:52:20.109Z,22
2024-02-17T06:53:26.276Z,22
2024-02-17T06:54:32.430Z,28
2024-02-17T06:55:38.535Z,28
2024-02-17T06:56:43.656Z,28
2024-02-17T06:57:49.761Z,28
2024-02-17T06:58:55.866Z,28
2024-02-17T07:00:01.981Z,28
2024-02-17T07:01:08.135Z,28
2024-02-17T07:02:14.240Z,33
2024-02-17T07:03:20.406Z,33
2024-02-17T07:04:26.548Z,33
2024-02-17T07:05:32.664Z,28
2024-02-17T07:06:38.831Z,33
2024-02-17T07:07:44.985Z,33
2024-02-17T07:08:51.089Z,33
2024-02-17T07:09:57.256Z,33
2024-02-17T07:11:02.377Z,33
2024-02-17T07:12:08.482Z,39
2024-02-17T07:13:14.587Z,39
2024-02-17T07:14:20.692Z,39
2024-02-17T07:15:26.797Z,45
2024-02-17T07:16:32.959Z,39
2024-02-17T07:17:39.113Z,39
2024-02-17T07:18:45.218Z,39
2024-02-17T07:19:51.385Z,39
2024-02-17T07:20:57.538Z,39
2024-02-17T07:22:03.644Z,39
2024-02-17T07:23:09.810Z,39
2024-02-17T07:24:15.964Z,39
2024-02-17T07:25:21.085Z,39
2024-02-17T07:26:27.167Z,39
2024-02-17T07:27:33.294Z,39
2024-02-17T07:28:39.399Z,39
2024-02-17T07:29:45.513Z,39
2024-02-17T07:30:51.635Z,45
2024-02-17T07:31:57.771Z,45
2024-02-17T07:33:03.937Z,45
2024-02-17T07:34:10.091Z,45
2024-02-17T07:35:16.185Z,45
2024-02-17T07:36:22.364Z,50
2024-02-17T07:37:28.518Z,50
2024-02-17T07:38:34.623Z,45
2024-02-17T07:39:39.744Z,50
2024-02-17T07:40:45.849Z,50
2024-02-17T07:41:51.954Z,50
2024-02-17T07:42:58.067Z,50
2024-02-17T07:44:04.221Z,50
2024-02-17T07:45:10.327Z,50
2024-02-17T07:46:16.495Z,56
2024-02-17T07:47:22.649Z,67
2024-02-17T07:48:28.754Z,78
2024-02-17T07:49:34.920Z,78
2024-02-17T07:50:41.074Z,78
2024-02-17T07:51:47.179Z,78
2024-02-17T07:52:53.345Z,78
2024-02-17T07:53:58.466Z,73
2024-02-17T07:55:04.571Z,73
2024-02-17T07:56:10.677Z,73
2024-02-17T07:57:16.782Z,67
2024-02-17T07:58:22.887Z,67
2024-02-17T07:59:29.049Z,61
2024-02-17T08:00:34.175Z,56
2024-02-17T08:01:40.280Z,45
2024-02-17T08:02:46.385Z,45
2024-02-17T08:03:52.490Z,39
2024-02-17T08:04:58.595Z,39
2024-02-17T08:06:04.755Z,33
2024-02-17T08:07:10.909Z,33
2024-02-17T08:08:17.014Z,33
2024-02-17T08:09:23.180Z,33
2024-02-17T08:10:29.334Z,33
2024-02-17T08:11:35.439Z,33
2024-02-17T08:12:41.606Z,33
2024-02-17T08:13:47.760Z,33
2024-02-17T08:14:52.881Z,33
2024-02-17T08:15:58.986Z,28
2024-02-17T08:17:05.091Z,33
2024-02-17T08:18:11.197Z,33
2024-02-17T08:19:17.310Z,33
2024-02-17T08:20:23.449Z,39
2024-02-17T08:21:29.569Z,56
2024-02-17T08:22:35.735Z,61
2024-02-17T08:23:41.889Z,56
2024-02-17T08:24:47.977Z,50
2024-02-17T08:25:54.160Z,61
2024-02-17T08:27:00.314Z,67
2024-02-17T08:28:06.419Z,73
2024-02-17T08:29:11.540Z,78
2024-02-17T08:30:17.645Z,78
2024-02-17T08:31:23.750Z,78
2024-02-17T08:32:29.864Z,84
2024-02-17T08:33:36.018Z,78
2024-02-17T08:34:42.123Z,90
2024-02-17T08:35:48.289Z,84
2024-02-17T08:36:54.443Z,84
2024-02-17T08:38:00.548Z,78
2024-02-17T08:39:06.714Z,78
2024-02-17T08:40:12.868Z,84
2024-02-17T08:41:18.973Z,78
2024-02-17T08:42:25.139Z,78
2024-02-17T08:43:30.260Z,73
2024-02-17T08:44:36.365Z,73
2024-02-17T08:45:42.470Z,67
2024-02-17T08:46:48.575Z,67
2024-02-17T08:47:54.680Z,61
2024-02-17T08:49:00.842Z,67
2024-02-17T08:50:06.997Z,67
2024-02-17T08:51:13.102Z,67
2024-02-17T08:52:19.269Z,73
2024-02-17T08:53:25.423Z,78
2024-02-17T08:54:31.528Z,73
2024-02-17T08:55:37.694Z,78
2024-02-17T08:56:43.848Z,73
2024-02-17T08:57:48.969Z,73
2024-02-17T08:58:55.074Z,78
2024-02-17T09:00:01.179Z,78
2024-02-17T09:01:07.284Z,90
2024-02-17T09:02:13.397Z,90
2024-02-17T09:03:19.551Z,90
2024-02-17T09:04:25.656Z,90
2024-02-17T09:05:31.823Z,90
2024-02-17T09:06:37.977Z,90
2024-02-17T09:07:44.082Z,84
2024-02-17T09:08:50.248Z,73
2024-02-17T09:09:56.402Z,78
2024-02-17T09:11:02.507Z,84
2024-02-17T09:12:07.627Z,73
2024-02-17T09:13:13.732Z,73
2024-02-17T09:14:19.816Z,67
2024-02-17T09:15:25.951Z,78
2024-02-17T09:16:32.105Z,78
2024-02-17T09:17:38.211Z,78
2024-02-17T09:18:44.377Z,84
2024-02-17T09:19:50.531Z,84
2024-02-17T09:20:56.636Z,78
2024-02-17T09:22:02.802Z,78
2024-02-17T09:23:08.956Z,67
2024-02-17T09:24:15.061Z,56
2024-02-17T09:25:21.227Z,50
2024-02-17T09:26:26.348Z,50
2024-02-17T09:27:32.453Z,50
2024-02-17T09:28:38.558Z,50
2024-02-17T09:29:44.663Z,39
2024-02-17T09:30:50.768Z,39
2024-02-17T09:31:56.930Z,39
2024-02-17T09:33:03.084Z,39
2024-02-17T09:34:09.189Z,28
2024-02-17T09:35:15.355Z,28
2024-02-17T09:36:21.509Z,45
2024-02-17T09:37:27.614Z,56
2024-02-17T09:38:33.780Z,50
2024-02-17T09:39:39.934Z,45
2024-02-17T09:40:45.055Z,39
2024-02-17T09:41:51.160Z,45
2024-02-17T09:42:57.266Z,50
2024-02-17T09:44:03.371Z,39
2024-02-17T09:45:09.484Z,50
2024-02-17T09:46:15.638Z,45
2024-02-17T09:47:21.743Z,39
2024-02-17T09:48:27.911Z,33
2024-02-17T09:49:34.064Z,28
2024-02-17T09:50:40.169Z,28
2024-02-17T09:51:46.336Z,28
2024-02-17T09:52:52.490Z,28
2024-02-17T09:53:58.595Z,5
2024-02-17T09:55:03.715Z,5
2024-02-17T09:56:09.820Z,11
2024-02-17T09:57:15.925Z,33
2024-02-17T09:58:22.039Z,5
2024-02-17T09:59:28.193Z,11
2024-02-17T10:00:34.298Z,28
2024-02-17T10:01:40.464Z,22
2024-02-17T10:02:46.618Z,22
2024-02-17T10:03:52.695Z,22
2024-02-17T10:04:58.890Z,22
2024-02-17T10:06:05.044Z,22
2024-02-17T10:07:11.149Z,22
2024-02-17T10:08:17.315Z,28
2024-02-17T10:09:22.436Z,28
2024-02-17T10:10:28.541Z,33
2024-02-17T10:11:34.646Z,45
2024-02-17T10:12:40.751Z,56
2024-02-17T10:13:46.856Z,61
2024-02-17T10:14:53.018Z,61
2024-02-17T10:15:59.172Z,67
2024-02-17T10:17:05.278Z,67
2024-02-17T10:18:11.445Z,56
2024-02-17T10:19:17.599Z,61
2024-02-17T10:20:23.704Z,67
2024-02-17T10:21:29.870Z,67
2024-02-17T10:22:36.024Z,73
2024-02-17T10:23:41.145Z,67
2024-02-17T10:24:47.250Z,84
2024-02-17T10:25:53.355Z,106
2024-02-17T10:26:59.460Z,106
2024-02-17T10:28:05.574Z,73
2024-02-17T10:29:11.728Z,61
2024-02-17T10:30:17.834Z,61
2024-02-17T10:31:24.000Z,61
2024-02-17T10:32:30.154Z,50
2024-02-17T10:33:36.259Z,39
2024-02-17T10:34:42.425Z,39
2024-02-17T10:35:48.579Z,61
2024-02-17T10:36:54.684Z,84
2024-02-17T10:37:59.805Z,90
2024-02-17T10:39:05.910Z,78
2024-02-17T10:40:12.014Z,73
2024-02-17T10:41:18.128Z,84
2024-02-17T10:42:24.282Z,67
2024-02-17T10:43:30.387Z,56
2024-02-17T10:44:36.553Z,50
2024-02-17T10:45:42.707Z,45
2024-02-17T10:46:48.812Z,33
2024-02-17T10:47:54.978Z,33
2024-02-17T10:49:01.132Z,45
2024-02-17T10:50:07.237Z,50
2024-02-17T10:51:13.403Z,39
2024-02-17T10:52:18.524Z,33
2024-02-17T10:53:24.629Z,28
2024-02-17T10:54:30.733Z,39
2024-02-17T10:55:36.838Z,39
2024-02-17T10:56:42.943Z,28
2024-02-17T10:57:49.106Z,16
2024-02-17T10:58:55.260Z,33
2024-02-17T11:00:01.365Z,67
2024-02-17T11:01:07.531Z,73
2024-02-17T11:02:13.685Z,78
2024-02-17T11:03:19.789Z,112
2024-02-17T11:04:25.956Z,135
2024-02-17T11:05:32.110Z,163
2024-02-17T11:06:37.231Z,185
2024-02-17T11:07:43.336Z,180
2024-02-17T11:08:49.441Z,168
2024-02-17T11:09:55.546Z,174
2024-02-17T11:11:01.659Z,157
2024-02-17T11:12:07.813Z,174
2024-02-17T11:13:13.917Z,174
2024-02-17T11:14:20.084Z,146
2024-02-17T11:15:26.238Z,123
2024-02-17T11:16:32.343Z,112
2024-02-17T11:17:38.509Z,106
2024-02-17T11:18:44.663Z,101
2024-02-17T11:19:50.767Z,95
2024-02-17T11:20:55.888Z,95
2024-02-17T11:22:01.993Z,90
2024-02-17T11:23:08.098Z,84
2024-02-17T11:24:14.211Z,73
2024-02-17T11:25:20.365Z,67
2024-02-17T11:26:26.470Z,61
2024-02-17T11:27:32.636Z,61
2024-02-17T11:28:38.790Z,56
2024-02-17T11:29:44.895Z,50
2024-02-17T11:30:51.061Z,50
2024-02-17T11:33:03.320Z,78
2024-02-17T11:34:09.486Z,90
2024-02-17T11:35:14.607Z,101
2024-02-17T11:36:20.711Z,90
2024-02-17T11:37:26.816Z,78
2024-02-17T11:38:32.921Z,67
2024-02-17T11:39:39.026Z,67
2024-02-17T11:40:45.188Z,67
2024-02-17T11:41:50.314Z,61
2024-02-17T11:42:56.419Z,61
2024-02-17T11:44:02.523Z,67
2024-02-17T11:45:08.628Z,67
2024-02-17T11:46:14.733Z,61
2024-02-17T11:47:20.891Z,61
2024-02-17T11:48:27.045Z,73
2024-02-17T11:49:33.149Z,61
2024-02-17T11:50:39.317Z,61
2024-02-17T11:51:45.471Z,67
2024-02-17T11:52:51.575Z,61
2024-02-17T11:53:57.741Z,56
2024-02-17T11:55:03.895Z,61
2024-02-17T11:56:09.016Z,56
2024-02-17T11:57:15.121Z,56
2024-02-17T11:58:21.227Z,67
2024-02-17T11:59:27.332Z,56
2024-02-17T12:00:33.444Z,50
2024-02-17T12:01:39.598Z,61
2024-02-17T12:02:45.703Z,56
2024-02-17T12:03:51.869Z,56
2024-02-17T12:04:58.023Z,73
2024-02-17T12:06:04.128Z,84
2024-02-17T12:07:10.294Z,78
2024-02-17T12:08:16.448Z,73
2024-02-17T12:09:22.553Z,73
2024-02-17T12:10:27.674Z,67
2024-02-17T12:11:33.778Z,50
2024-02-17T12:12:39.883Z,45
2024-02-17T12:13:45.997Z,61
2024-02-17T12:14:52.151Z,84
2024-02-17T12:15:58.255Z,67
2024-02-17T12:17:04.422Z,61
2024-02-17T12:18:10.575Z,67
2024-02-17T12:19:16.680Z,78
2024-02-17T12:20:22.846Z,101
2024-02-17T12:21:29.000Z,140
2024-02-17T12:22:35.105Z,185
2024-02-17T12:23:41.271Z,196
2024-02-17T12:24:47.425Z,225
2024-02-17T12:25:52.546Z,270
2024-02-17T12:26:58.651Z,286
2024-02-17T12:28:04.755Z,309
2024-02-17T12:29:10.860Z,506
2024-02-17T12:30:16.973Z,489
2024-02-17T12:31:23.127Z,478
2024-02-17T12:32:29.232Z,461
2024-02-17T12:33:35.398Z,478
2024-02-17T12:34:41.552Z,399
2024-02-17T12:35:47.657Z,511
2024-02-17T12:36:53.822Z,590
2024-02-17T12:37:59.976Z,776
2024-02-17T12:39:06.081Z,1237
2024-02-17T12:40:11.202Z,1395
2024-02-17T12:41:17.307Z,1248
2024-02-17T12:42:23.412Z,382
2024-02-17T12:43:29.526Z,478
2024-02-17T12:44:35.681Z,489
2024-02-17T12:45:41.786Z,562
2024-02-17T12:46:47.952Z,2435
2024-02-17T12:47:54.094Z,703
2024-02-17T12:49:00.210Z,1119
2024-02-17T12:50:06.376Z,2120
2024-02-17T12:51:12.530Z,2340
2024-02-17T12:52:18.604Z,1243
2024-02-17T12:53:24.800Z,2413
2024-02-17T12:54:29.921Z,2424
2024-02-17T12:55:36.026Z,2205
2024-02-17T12:56:42.131Z,2356
2024-02-17T12:57:48.236Z,2435
2024-02-17T12:58:54.340Z,2677
2024-02-17T13:00:00.501Z,888
2024-02-17T13:01:06.655Z,1018
2024-02-17T13:02:12.760Z,579
2024-02-17T13:03:18.926Z,1873
2024-02-17T13:04:25.079Z,433
2024-02-17T13:05:31.154Z,421
2024-02-17T13:06:37.349Z,1648
2024-02-17T13:07:43.503Z,416
2024-02-17T13:08:48.624Z,326
2024-02-17T13:09:54.728Z,247
2024-02-17T13:11:00.833Z,281
2024-02-17T13:12:06.937Z,326
2024-02-17T13:13:13.051Z,281
2024-02-17T13:14:19.205Z,247
2024-02-17T13:15:25.309Z,208
2024-02-17T13:16:31.475Z,168
2024-02-17T13:17:37.628Z,208
2024-02-17T13:18:43.733Z,219
2024-02-17T13:19:49.899Z,157
2024-02-17T13:20:56.052Z,106
2024-02-17T13:22:02.157Z,185
2024-02-17T13:23:07.278Z,213
2024-02-17T13:24:13.383Z,185
2024-02-17T13:25:19.487Z,106
2024-02-17T13:26:25.601Z,106
2024-02-17T13:27:31.755Z,106
2024-02-17T13:28:37.860Z,101
2024-02-17T13:29:44.026Z,106
2024-02-17T13:30:50.180Z,112
2024-02-17T13:31:56.284Z,106
2024-02-17T13:33:02.426Z,95
2024-02-17T13:34:08.604Z,84
2024-02-17T13:35:14.686Z,56
2024-02-17T13:36:20.875Z,33
2024-02-17T13:37:25.976Z,33
2024-02-17T13:38:32.100Z,45
2024-02-17T13:39:38.205Z,61
2024-02-17T13:40:44.309Z,67
2024-02-17T13:41:50.405Z,61
2024-02-17T13:42:56.577Z,56
2024-02-17T13:44:02.731Z,50
2024-02-17T13:45:08.835Z,50
2024-02-17T13:46:15.002Z,67
2024-02-17T13:47:21.155Z,73
2024-02-17T13:48:27.260Z,61
2024-02-17T13:49:33.426Z,50
2024-02-17T13:50:39.580Z,50
2024-02-17T13:51:44.701Z,50
2024-02-17T13:52:50.806Z,90
2024-02-17T13:53:56.910Z,151
2024-02-17T13:55:03.015Z,472
2024-02-17T13:56:09.128Z,455
2024-02-17T13:57:15.282Z,320
2024-02-17T13:58:21.387Z,270
2024-02-17T13:59:27.553Z,298
2024-02-17T14:00:33.706Z,1305
2024-02-17T14:01:39.793Z,1316
2024-02-17T14:02:45.977Z,821
2024-02-17T14:03:52.131Z,652
2024-02-17T14:04:58.236Z,1305
2024-02-17T14:06:03.357Z,646
2024-02-17T14:07:09.462Z,646
2024-02-17T14:08:15.566Z,140
2024-02-17T14:09:21.681Z,146
2024-02-17T14:10:27.835Z,101
2024-02-17T14:11:33.940Z,123
2024-02-17T14:12:40.105Z,157
2024-02-17T14:13:46.259Z,213
2024-02-17T14:14:52.365Z,1096
2024-02-17T14:15:58.531Z,405
2024-02-17T14:17:04.685Z,225
2024-02-17T14:18:10.789Z,354
2024-02-17T14:19:16.956Z,489
2024-02-17T14:20:22.077Z,393
2024-02-17T14:21:28.182Z,1248
2024-02-17T14:22:34.287Z,236
2024-02-17T14:23:40.392Z,95
2024-02-17T14:24:46.496Z,61
2024-02-17T14:25:52.659Z,39
2024-02-17T14:26:58.813Z,39
2024-02-17T14:28:04.918Z,45
2024-02-17T14:29:11.084Z,39
2024-02-17T14:30:17.238Z,28
2024-02-17T14:31:23.343Z,33
2024-02-17T14:32:29.509Z,50
2024-02-17T14:33:35.663Z,95
2024-02-17T14:34:40.783Z,101
2024-02-17T14:35:46.888Z,73
2024-02-17T14:36:52.993Z,45
2024-02-17T14:37:59.097Z,39
2024-02-17T14:39:05.211Z,33
2024-02-17T14:40:11.365Z,28
2024-02-17T14:41:17.469Z,45
2024-02-17T14:42:23.636Z,50
2024-02-17T14:43:29.790Z,56
2024-02-17T14:44:35.894Z,61
2024-02-17T14:45:42.060Z,56
2024-02-17T14:46:48.201Z,50
2024-02-17T14:47:54.319Z,56
2024-02-17T14:48:59.440Z,50
2024-02-17T14:50:05.544Z,50
2024-02-17T14:51:11.649Z,45
2024-02-17T14:52:17.762Z,33
2024-02-17T14:53:23.917Z,39
2024-02-17T14:54:30.021Z,50
2024-02-17T14:55:36.187Z,73
2024-02-17T14:56:42.341Z,106
2024-02-17T14:57:48.446Z,112
2024-02-17T14:58:54.612Z,106
2024-02-17T15:00:00.766Z,95
2024-02-17T15:01:06.870Z,95
2024-02-17T15:02:13.036Z,101
2024-02-17T15:03:18.157Z,95
2024-02-17T15:04:24.262Z,90
2024-02-17T15:05:30.366Z,101
2024-02-17T15:06:36.471Z,129
2024-02-17T15:07:42.575Z,185
2024-02-17T15:08:48.739Z,843
2024-02-17T15:09:54.892Z,1147
2024-02-17T15:11:00.997Z,253
2024-02-17T15:12:07.163Z,652
2024-02-17T15:13:13.317Z,1198
2024-02-17T15:14:19.422Z,1175
2024-02-17T15:15:25.588Z,646
2024-02-17T15:16:31.742Z,517
2024-02-17T15:17:36.862Z,720
2024-02-17T15:18:42.968Z,697
2024-02-17T15:19:49.072Z,196
2024-02-17T15:20:55.147Z,213
2024-02-17T15:22:01.291Z,196
2024-02-17T15:23:06.417Z,405
2024-02-17T15:24:12.521Z,146
2024-02-17T15:25:18.626Z,123
2024-02-17T15:26:24.731Z,101
2024-02-17T15:27:30.835Z,95
2024-02-17T15:28:36.994Z,101
2024-02-17T15:29:43.148Z,118
2024-02-17T15:30:49.254Z,129
2024-02-17T15:31:55.420Z,146
2024-02-17T15:33:01.574Z,208
2024-02-17T15:34:07.679Z,219
2024-02-17T15:35:13.845Z,191
2024-02-17T15:36:19.986Z,230
2024-02-17T15:37:25.120Z,275
2024-02-17T15:38:31.225Z,123
2024-02-17T15:39:37.330Z,157
2024-02-17T15:40:43.435Z,191
2024-02-17T15:41:49.548Z,174
2024-02-17T15:42:55.702Z,106
2024-02-17T15:44:01.807Z,73
2024-02-17T15:45:07.973Z,61
2024-02-17T15:46:14.127Z,50
2024-02-17T15:47:20.232Z,123
2024-02-17T15:48:26.398Z,61
2024-02-17T15:49:32.551Z,33
2024-02-17T15:50:38.656Z,28